Time;durP1;ratioP1;P1;durP2;ratioP2;P2;SDS_P1;SDS_P2;PMS_P1;PMS_P2;Temp;Humidity;BMP_temperature;BMP_pressure;BME280_temperature;BME280_humidity;BME280_pressure;Samples;Min_cycle;Max_cycle;Signal;HPM_P1;HPM_P2
2023/05/02 00:01:20;;;;;;;6.53;2.40;;;13.30;62.20;;;;;;4793753;29;20413;-88
2023/05/02 00:03:47;;;;;;;6.65;2.22;;;13.40;62.10;;;;;;4793657;29;20106;-88
2023/05/02 00:06:14;;;;;;;7.40;2.20;;;13.30;62.40;;;;;;4800375;29;20053;-87
2023/05/02 00:08:42;;;;;;;6.30;2.03;;;13.30;61.80;;;;;;4789527;29;20075;-88
2023/05/02 00:11:09;;;;;;;6.75;2.33;;;13.30;61.80;;;;;;4790713;29;20081;-87
2023/05/02 00:13:36;;;;;;;6.13;2.40;;;13.40;61.70;;;;;;4789335;29;20047;-88
2023/05/02 00:16:03;;;;;;;6.38;2.30;;;13.30;61.80;;;;;;4790843;29;20074;-87
2023/05/02 00:18:30;;;;;;;5.97;2.10;;;13.30;61.60;;;;;;4790474;29;20065;-88
2023/05/02 00:20:57;;;;;;;6.95;1.90;;;13.40;61.50;;;;;;4790425;29;20138;-88
2023/05/02 00:23:24;;;;;;;6.50;2.42;;;13.30;61.60;;;;;;4788201;29;20074;-88
2023/05/02 00:25:51;;;;;;;7.47;2.50;;;13.30;61.70;;;;;;4790276;29;20066;-88
2023/05/02 00:28:18;;;;;;;7.43;2.92;;;13.30;61.50;;;;;;4790752;29;20046;-88
2023/05/02 00:30:45;;;;;;;7.90;2.97;;;13.20;61.50;;;;;;4785722;29;20112;-88
2023/05/02 00:33:13;;;;;;;6.85;2.70;;;13.20;61.70;;;;;;4805497;29;20517;-88
2023/05/02 00:35:41;;;;;;;8.98;2.53;;;13.20;61.60;;;;;;4790380;29;20054;-88
2023/05/02 00:38:08;;;;;;;7.93;3.00;;;13.10;61.80;;;;;;4787694;29;20046;-88
2023/05/02 00:40:50;;;;;;;8.73;3.00;;;13.10;61.50;;;;;;4788628;29;20134;-88
2023/05/02 00:43:17;;;;;;;8.20;3.00;;;13.00;62.00;;;;;;4790129;29;20081;-87
2023/05/02 00:45:48;;;;;;;7.50;2.75;;;13.00;62.10;;;;;;4790368;29;20046;-88
2023/05/02 00:48:16;;;;;;;10.57;3.50;;;13.00;62.10;;;;;;4790014;29;20050;-88
2023/05/02 00:50:43;;;;;;;7.80;2.90;;;12.90;62.20;;;;;;4805265;29;20054;-87
2023/05/02 00:53:10;;;;;;;12.18;3.00;;;12.90;62.20;;;;;;4805959;29;20055;-88
2023/05/02 00:55:37;;;;;;;9.80;2.80;;;12.80;62.60;;;;;;4790189;29;20074;-88
2023/05/02 00:58:13;;;;;;;7.68;2.63;;;12.80;62.30;;;;;;4788816;29;20134;-87
2023/05/02 01:01:01;;;;;;;8.23;2.60;;;12.70;62.30;;;;;;4804316;29;20056;-86
2023/05/02 01:03:43;;;;;;;7.85;2.80;;;12.70;62.10;;;;;;4804528;29;20142;-88
2023/05/02 01:06:18;;;;;;;7.38;2.60;;;12.70;62.00;;;;;;4801196;29;20055;-87
2023/05/02 01:08:59;;;;;;;7.30;2.87;;;12.80;62.10;;;;;;4806512;29;20042;-88
2023/05/02 01:11:52;;;;;;;9.27;2.72;;;12.70;62.10;;;;;;4795365;29;20046;-87
2023/05/02 01:14:21;;;;;;;7.10;2.60;;;12.70;62.30;;;;;;4796015;29;20065;-87
2023/05/02 01:16:49;;;;;;;6.57;2.10;;;12.60;62.10;;;;;;4813972;29;20066;-88
2023/05/02 01:19:30;;;;;;;7.05;2.58;;;12.60;62.00;;;;;;4795898;29;20054;-88
2023/05/02 01:22:00;;;;;;;9.53;2.80;;;12.60;62.20;;;;;;4824689;29;20043;-88
2023/05/02 01:25:01;;;;;;;7.82;2.88;;;12.60;62.50;;;;;;4794645;29;20051;-88
2023/05/02 01:28:09;;;;;;;6.63;2.53;;;12.60;61.30;;;;;;4825567;29;20047;-88
2023/05/02 01:30:37;;;;;;;8.00;2.50;;;12.60;61.40;;;;;;4808680;29;20051;-88
2023/05/02 01:33:06;;;;;;;8.27;2.00;;;12.50;61.80;;;;;;4823926;29;20141;-88
2023/05/02 01:35:35;;;;;;;8.10;2.20;;;12.50;61.90;;;;;;4795794;29;20394;-88
2023/05/02 01:38:04;;;;;;;7.57;2.42;;;12.50;62.00;;;;;;4812571;29;20087;-89
2023/05/02 01:40:33;;;;;;;7.97;2.28;;;12.50;61.80;;;;;;4796032;29;20450;-88
2023/05/02 01:43:04;;;;;;;6.85;2.40;;;12.50;61.30;;;;;;4812349;29;20111;-88
2023/05/02 01:45:33;;;;;;;6.68;2.22;;;12.50;61.30;;;;;;4795324;29;20421;-88
2023/05/02 01:48:01;;;;;;;6.83;1.97;;;12.50;61.20;;;;;;4811152;29;20517;-88
2023/05/02 01:50:29;;;;;;;7.38;2.15;;;12.50;60.60;;;;;;4809597;29;20512;-88
2023/05/02 01:52:58;;;;;;;6.85;2.20;;;12.50;60.80;;;;;;4826011;29;20732;-87
2023/05/02 01:55:25;;;;;;;6.85;2.17;;;12.50;60.60;;;;;;4794508;29;20054;-88
2023/05/02 01:57:55;;;;;;;6.88;2.00;;;12.50;60.20;;;;;;4810023;29;20074;-88
2023/05/02 02:00:25;;;;;;;6.30;1.93;;;12.50;59.70;;;;;;4810922;29;20493;-88
2023/05/02 02:02:56;;;;;;;8.88;1.90;;;12.50;60.10;;;;;;4810955;29;20138;-88
2023/05/02 02:05:24;;;;;;;5.80;1.80;;;12.50;60.10;;;;;;4810289;29;20046;-87
2023/05/02 02:07:51;;;;;;;8.48;1.80;;;12.40;59.70;;;;;;4794132;29;20483;-88
2023/05/02 02:10:18;;;;;;;8.20;2.13;;;12.50;59.80;;;;;;4810581;29;20058;-88
2023/05/02 02:12:52;;;;;;;6.67;1.80;;;12.50;59.80;;;;;;4825724;29;20413;-87
2023/05/02 02:15:33;;;;;;;7.53;1.73;;;12.50;59.70;;;;;;4808668;29;20050;-87
2023/05/02 02:18:20;;;;;;;5.72;1.70;;;12.40;59.70;;;;;;4824726;29;20062;-88
2023/05/02 02:20:49;;;;;;;7.22;2.25;;;12.40;59.80;;;;;;4795357;29;20038;-87
2023/05/02 02:23:19;;;;;;;7.85;1.90;;;12.30;59.70;;;;;;4794144;29;20561;-87
2023/05/02 02:25:49;;;;;;;7.17;1.93;;;12.30;59.90;;;;;;4820837;29;20042;-88
2023/05/02 02:28:16;;;;;;;6.13;2.00;;;12.30;60.10;;;;;;4792842;29;20046;-88
2023/05/02 02:30:43;;;;;;;5.82;1.83;;;12.20;59.70;;;;;;4809983;29;20056;-87
2023/05/02 02:33:10;;;;;;;5.50;1.75;;;12.20;59.70;;;;;;4809573;29;20173;-87
2023/05/02 02:35:41;;;;;;;5.93;1.80;;;12.20;60.00;;;;;;4793232;29;20054;-87
2023/05/02 02:38:49;;;;;;;5.90;2.13;;;12.10;60.00;;;;;;4825710;29;20572;-88
2023/05/02 02:41:44;;;;;;;6.25;1.80;;;12.10;59.90;;;;;;4824435;29;20039;-87
2023/05/02 02:44:30;;;;;;;6.68;2.03;;;12.10;60.00;;;;;;4824524;29;20055;-87
2023/05/02 02:47:28;;;;;;;5.57;1.80;;;12.10;59.90;;;;;;4820615;29;20087;-88
2023/05/02 02:50:18;;;;;;;6.57;2.22;;;12.00;59.20;;;;;;4823397;29;20049;-88
2023/05/02 02:52:52;;;;;;;6.10;1.90;;;12.00;59.80;;;;;;4824673;29;20051;-88
2023/05/02 02:55:33;;;;;;;6.88;2.00;;;12.00;59.60;;;;;;4794449;29;20050;-88
2023/05/02 02:58:10;;;;;;;6.50;1.75;;;12.00;59.20;;;;;;4806712;29;20451;-88
2023/05/02 03:00:38;;;;;;;7.75;1.90;;;12.00;59.30;;;;;;4809814;29;20068;-88
2023/05/02 03:03:06;;;;;;;7.85;2.15;;;12.00;59.70;;;;;;4794534;29;20074;-88
2023/05/02 03:05:33;;;;;;;6.87;2.00;;;12.00;59.40;;;;;;4812369;29;20050;-88
2023/05/02 03:08:00;;;;;;;5.88;1.70;;;12.00;59.80;;;;;;4794363;29;20054;-89
2023/05/02 03:10:29;;;;;;;6.05;1.77;;;12.00;59.40;;;;;;4813650;29;20461;-87
2023/05/02 03:12:56;;;;;;;6.43;1.83;;;12.00;59.50;;;;;;4791855;29;20078;-88
2023/05/02 03:16:05;;;;;;;6.13;2.05;;;12.00;59.60;;;;;;4803607;29;20054;-88
2023/05/02 03:18:33;;;;;;;8.93;2.20;;;12.00;59.40;;;;;;4807492;29;20042;-88
2023/05/02 03:21:01;;;;;;;7.25;1.90;;;12.00;59.40;;;;;;4806956;29;20062;-88
2023/05/02 03:23:28;;;;;;;6.93;1.67;;;11.90;59.20;;;;;;4810868;29;20104;-88
2023/05/02 03:25:55;;;;;;;6.32;2.28;;;11.90;59.70;;;;;;4822183;29;20046;-88
2023/05/02 03:28:24;;;;;;;5.55;1.65;;;11.80;59.20;;;;;;4809215;29;20046;-88
2023/05/02 03:30:52;;;;;;;4.43;1.27;;;11.90;59.40;;;;;;4811473;29;20054;-89
2023/05/02 03:33:20;;;;;;;10.55;1.70;;;11.80;59.20;;;;;;4823856;29;20046;-89
2023/05/02 03:35:47;;;;;;;4.88;1.40;;;11.80;59.20;;;;;;4811978;29;20039;-89
2023/05/02 03:38:14;;;;;;;5.32;1.23;;;11.90;59.60;;;;;;4824674;29;20494;-89
2023/05/02 03:40:44;;;;;;;7.53;1.60;;;11.80;59.00;;;;;;4824633;29;20133;-89
2023/05/02 03:43:12;;;;;;;5.63;1.30;;;11.90;59.20;;;;;;4809456;29;20050;-88
2023/05/02 03:45:41;;;;;;;5.38;1.30;;;11.90;58.80;;;;;;4809502;29;20074;-89
2023/05/02 03:48:08;;;;;;;5.40;1.65;;;11.90;58.10;;;;;;4819279;29;20099;-89
2023/05/02 03:50:36;;;;;;;4.28;1.20;;;11.90;58.60;;;;;;4799656;29;20038;-91
2023/05/02 03:53:04;;;;;;;4.72;1.33;;;12.00;58.40;;;;;;4824904;29;20042;-89
2023/05/02 03:55:42;;;;;;;6.73;1.40;;;12.00;58.50;;;;;;4795970;29;20521;-89
2023/05/02 03:58:15;;;;;;;6.82;1.40;;;12.00;58.30;;;;;;4784095;29;20405;-89
2023/05/02 04:00:46;;;;;;;6.32;1.80;;;11.90;58.20;;;;;;4824990;29;20054;-89
2023/05/02 04:03:15;;;;;;;6.95;1.50;;;12.00;57.90;;;;;;4824692;29;20050;-89
2023/05/02 04:05:44;;;;;;;4.97;1.30;;;12.00;58.20;;;;;;4824808;29;20049;-89
2023/05/02 04:08:13;;;;;;;6.23;1.63;;;12.00;58.10;;;;;;4793972;29;20065;-89
2023/05/02 04:10:41;;;;;;;5.97;1.20;;;12.10;57.80;;;;;;4808898;29;20106;-89
2023/05/02 04:13:10;;;;;;;5.82;1.35;;;12.00;57.60;;;;;;4794269;29;20509;-89
2023/05/02 04:15:40;;;;;;;5.80;1.40;;;12.10;57.10;;;;;;4812626;29;20049;-89
2023/05/02 04:18:07;;;;;;;5.18;1.42;;;12.20;57.20;;;;;;4791629;29;20051;-89
2023/05/02 04:20:36;;;;;;;4.03;1.07;;;12.30;56.50;;;;;;4809262;29;20107;-89
2023/05/02 04:23:03;;;;;;;4.05;1.13;;;12.40;55.90;;;;;;4791221;29;20066;-89
2023/05/02 04:25:31;;;;;;;4.53;1.42;;;12.50;56.10;;;;;;4808792;29;20042;-89
2023/05/02 04:28:02;;;;;;;5.30;1.40;;;12.50;55.40;;;;;;4792864;29;20104;-89
2023/05/02 04:30:30;;;;;;;5.88;1.35;;;12.70;55.40;;;;;;4793799;29;20047;-89
2023/05/02 04:33:05;;;;;;;7.43;1.40;;;12.70;55.70;;;;;;4808862;29;20141;-89
2023/05/02 04:35:35;;;;;;;5.60;1.40;;;12.80;55.90;;;;;;4793956;29;20066;-89
2023/05/02 04:38:04;;;;;;;9.23;2.10;;;12.90;55.40;;;;;;4809530;29;20074;-89
2023/05/02 04:40:32;;;;;;;6.35;1.15;;;13.00;54.50;;;;;;4808883;29;20046;-89
2023/05/02 04:43:03;;;;;;;6.50;1.40;;;13.10;54.30;;;;;;4794326;29;20447;-89
2023/05/02 04:45:53;;;;;;;4.20;1.03;;;13.30;54.10;;;;;;4823471;29;20095;-89
2023/05/02 04:48:26;;;;;;;7.68;1.67;;;13.40;54.40;;;;;;4794499;29;20046;-89
2023/05/02 04:50:53;;;;;;;7.32;2.25;;;13.50;54.90;;;;;;4793765;29;20051;-91
2023/05/02 04:53:21;;;;;;;11.35;2.92;;;13.50;54.30;;;;;;4794704;29;20105;-92
2023/05/02 04:55:48;;;;;;;8.10;2.25;;;13.60;54.70;;;;;;4794772;29;20463;-90
2023/05/02 04:58:16;;;;;;;8.77;1.80;;;13.70;54.60;;;;;;4794389;29;20429;-90
2023/05/02 05:00:47;;;;;;;7.45;1.40;;;13.70;54.00;;;;;;4808925;29;20046;-89
2023/05/02 05:03:14;;;;;;;5.95;1.20;;;13.80;53.20;;;;;;4809193;29;20058;-90
2023/05/02 05:05:42;;;;;;;7.72;1.25;;;13.90;53.10;;;;;;4794114;29;20134;-90
2023/05/02 05:08:13;;;;;;;6.32;1.23;;;13.90;54.50;;;;;;4791237;29;20047;-90
2023/05/02 05:10:40;;;;;;;5.93;1.23;;;14.00;53.50;;;;;;4806120;29;20090;-90
2023/05/02 05:13:07;;;;;;;4.45;1.00;;;14.00;53.70;;;;;;4791031;29;20096;-90
2023/05/02 05:15:34;;;;;;;4.72;1.10;;;14.00;53.50;;;;;;4791471;29;20055;-90
2023/05/02 05:18:02;;;;;;;6.70;1.58;;;14.00;54.10;;;;;;4791032;29;20047;-90
2023/05/02 05:20:29;;;;;;;5.90;1.40;;;14.10;53.90;;;;;;4804188;29;20083;-89
2023/05/02 05:23:03;;;;;;;6.23;1.40;;;14.10;54.10;;;;;;4788814;29;20047;-90
2023/05/02 05:26:19;;;;;;;5.28;1.15;;;14.10;54.20;;;;;;4787492;29;20044;-90
2023/05/02 05:29:13;;;;;;;6.53;1.30;;;14.20;53.70;;;;;;4784604;29;20059;-90
2023/05/02 05:31:44;;;;;;;9.65;1.63;;;14.20;53.60;;;;;;4806095;29;20074;-89
2023/05/02 05:34:14;;;;;;;5.18;1.50;;;14.30;53.20;;;;;;4788183;29;20055;-89
2023/05/02 05:36:43;;;;;;;11.83;1.80;;;14.30;53.70;;;;;;4805510;29;20050;-89
2023/05/02 05:39:10;;;;;;;4.80;1.50;;;14.50;53.70;;;;;;4805847;29;20063;-89
2023/05/02 05:41:40;;;;;;;5.05;1.38;;;14.50;54.00;;;;;;4791027;29;20395;-90
2023/05/02 05:44:09;;;;;;;4.65;1.55;;;14.50;54.10;;;;;;4791250;29;20051;-90
2023/05/02 05:46:36;;;;;;;5.75;1.60;;;14.50;54.80;;;;;;4788738;29;20052;-90
2023/05/02 05:49:05;;;;;;;4.47;1.20;;;14.50;54.60;;;;;;4790826;29;20074;-89
2023/05/02 05:51:34;;;;;;;71.72;4.47;;;14.60;54.30;;;;;;4790784;29;20062;-89
2023/05/02 05:54:01;;;;;;;11.07;1.88;;;14.60;54.70;;;;;;4790530;29;20134;-89
2023/05/02 05:56:28;;;;;;;6.05;1.48;;;14.70;54.10;;;;;;4791747;29;20145;-89
2023/05/02 05:59:04;;;;;;;7.20;2.15;;;14.80;54.00;;;;;;4795087;29;20051;-89
2023/05/02 06:01:31;;;;;;;6.00;1.43;;;15.00;53.80;;;;;;4808921;29;20082;-89
2023/05/02 06:03:58;;;;;;;7.40;1.70;;;15.10;53.80;;;;;;4790690;29;20055;-90
2023/05/02 06:06:26;;;;;;;15.15;3.78;;;15.20;53.60;;;;;;4823970;29;20058;-90
2023/05/02 06:09:04;;;;;;;23.50;5.30;;;15.50;54.00;;;;;;4811321;29;20057;-90
2023/05/02 06:11:38;;;;;;;16.17;5.40;;;15.60;52.80;;;;;;4798066;29;20054;-90
2023/05/02 06:14:07;;;;;;;13.83;3.67;;;15.90;52.70;;;;;;4811355;29;20194;-89
2023/05/02 06:16:34;;;;;;;12.52;3.00;;;16.10;53.00;;;;;;4812002;29;20109;-90
2023/05/02 06:19:02;;;;;;;17.17;5.32;;;16.20;52.60;;;;;;4814709;29;20051;-90
2023/05/02 06:21:30;;;;;;;18.73;4.88;;;16.40;52.20;;;;;;4796144;29;20402;-90
2023/05/02 06:23:57;;;;;;;13.10;3.35;;;16.60;52.30;;;;;;4811374;29;20114;-89
2023/05/02 06:26:24;;;;;;;12.90;3.83;;;16.70;50.70;;;;;;4811927;29;20523;-89
2023/05/02 06:28:56;;;;;;;16.50;5.05;;;16.90;51.30;;;;;;4796291;29;20046;-89
2023/05/02 06:31:23;;;;;;;14.27;3.33;;;17.00;52.20;;;;;;4826306;29;20085;-89
2023/05/02 06:33:51;;;;;;;11.00;3.00;;;17.10;50.30;;;;;;4796565;29;20050;-89
2023/05/02 06:36:18;;;;;;;12.18;3.47;;;17.10;50.80;;;;;;4796068;29;20061;-89
2023/05/02 06:38:45;;;;;;;11.33;2.77;;;17.20;51.10;;;;;;4811058;29;20054;-90
2023/05/02 06:41:13;;;;;;;11.68;3.60;;;17.30;51.60;;;;;;4825986;29;20460;-90
2023/05/02 06:43:43;;;;;;;17.70;5.65;;;17.50;51.80;;;;;;4796601;29;20528;-90
2023/05/02 06:46:11;;;;;;;73.45;6.20;;;17.50;50.00;;;;;;4819037;29;20085;-89
2023/05/02 06:48:38;;;;;;;9.35;2.00;;;17.60;50.10;;;;;;4810933;29;20536;-90
2023/05/02 06:51:05;;;;;;;6.10;2.00;;;17.70;50.10;;;;;;4825866;29;20097;-89
2023/05/02 06:53:32;;;;;;;6.35;1.50;;;17.80;49.90;;;;;;4811142;29;20054;-90
2023/05/02 06:55:59;;;;;;;7.57;1.70;;;17.80;49.10;;;;;;4810963;29;20050;-90
2023/05/02 06:58:26;;;;;;;9.07;2.10;;;17.90;50.70;;;;;;4810008;29;20057;-90
2023/05/02 07:00:53;;;;;;;9.55;2.00;;;18.00;50.10;;;;;;4810642;29;20515;-90
2023/05/02 07:03:21;;;;;;;6.43;1.77;;;18.00;48.60;;;;;;4795467;29;20050;-90
2023/05/02 07:05:48;;;;;;;9.23;2.85;;;18.10;49.10;;;;;;4807797;29;20512;-90
2023/05/02 07:08:15;;;;;;;25.90;11.85;;;18.30;50.30;;;;;;4827627;29;20047;-90
2023/05/02 07:10:42;;;;;;;12.30;4.22;;;18.50;50.80;;;;;;4795720;29;20506;-90
2023/05/02 07:13:09;;;;;;;9.93;2.25;;;18.60;49.80;;;;;;4810391;29;20115;-90
2023/05/02 07:15:36;;;;;;;10.00;2.90;;;18.70;48.70;;;;;;4795480;29;20058;-90
2023/05/02 07:18:03;;;;;;;13.10;3.90;;;18.80;49.60;;;;;;4810268;29;20058;-89
2023/05/02 07:20:31;;;;;;;14.13;6.25;;;18.90;48.60;;;;;;4795228;29;20053;-90
2023/05/02 07:22:58;;;;;;;4.97;1.50;;;19.00;47.70;;;;;;4810243;29;20043;-90
2023/05/02 07:25:26;;;;;;;6.70;1.30;;;18.80;45.90;;;;;;4795239;29;20137;-90
2023/05/02 07:27:53;;;;;;;5.13;1.07;;;18.60;46.30;;;;;;4795140;29;20501;-89
2023/05/02 07:30:20;;;;;;;5.15;0.88;;;18.50;47.50;;;;;;4794230;29;20051;-89
2023/05/02 07:32:47;;;;;;;4.53;1.00;;;18.50;47.20;;;;;;4810370;29;20060;-90
2023/05/02 07:35:14;;;;;;;3.92;1.10;;;18.50;46.80;;;;;;4825188;29;20134;-90
2023/05/02 07:37:41;;;;;;;5.63;1.40;;;18.50;48.10;;;;;;4810096;29;20050;-90
2023/05/02 07:40:09;;;;;;;4.70;1.33;;;18.60;47.50;;;;;;4809934;29;20053;-89
2023/05/02 07:42:36;;;;;;;6.07;1.30;;;18.60;46.90;;;;;;4794600;29;20046;-90
2023/05/02 07:45:04;;;;;;;6.45;1.25;;;18.80;47.40;;;;;;4792096;29;20046;-89
2023/05/02 07:47:31;;;;;;;5.40;1.30;;;18.80;47.90;;;;;;4824079;29;20076;-90
2023/05/02 07:49:59;;;;;;;6.07;1.20;;;18.80;46.20;;;;;;4795229;29;20160;-90
2023/05/02 07:52:28;;;;;;;8.13;1.30;;;19.00;49.00;;;;;;4824890;29;20054;-87
2023/05/02 07:54:55;;;;;;;4.50;1.30;;;19.00;47.80;;;;;;4794728;29;20054;-87
2023/05/02 07:57:23;;;;;;;5.07;1.27;;;19.10;48.30;;;;;;4809968;29;20130;-87
2023/05/02 07:59:50;;;;;;;4.38;1.08;;;19.10;48.00;;;;;;4811656;29;20054;-87
2023/05/02 08:02:18;;;;;;;3.70;1.33;;;19.10;48.00;;;;;;4809886;29;20493;-87
2023/05/02 08:04:46;;;;;;;5.60;1.40;;;19.20;47.80;;;;;;4791628;29;20047;-87
2023/05/02 08:07:14;;;;;;;4.72;1.42;;;19.30;47.60;;;;;;4792209;29;20050;-87
2023/05/02 08:09:41;;;;;;;5.80;1.90;;;19.50;48.70;;;;;;4794580;29;20042;-87
2023/05/02 08:12:08;;;;;;;6.32;1.38;;;19.70;47.50;;;;;;4824615;29;20051;-87
2023/05/02 08:14:35;;;;;;;6.68;1.83;;;19.80;47.00;;;;;;4794635;29;20114;-87
2023/05/02 08:17:03;;;;;;;7.30;1.80;;;19.80;47.90;;;;;;4824488;29;20058;-87
2023/05/02 08:19:31;;;;;;;8.85;1.88;;;19.70;48.10;;;;;;4794377;29;20058;-87
2023/05/02 08:21:58;;;;;;;7.00;1.80;;;19.70;47.90;;;;;;4794212;29;20042;-88
2023/05/02 08:24:25;;;;;;;4.43;1.40;;;19.70;46.10;;;;;;4797130;29;20087;-87
2023/05/02 08:26:55;;;;;;;5.50;1.80;;;19.80;47.70;;;;;;4824933;29;20497;-87
2023/05/02 08:29:23;;;;;;;5.33;1.60;;;19.80;47.80;;;;;;4809265;29;20054;-87
2023/05/02 08:31:50;;;;;;;4.35;1.48;;;19.80;48.50;;;;;;4791237;29;20146;-87
2023/05/02 08:34:17;;;;;;;5.00;1.75;;;19.80;50.30;;;;;;4792820;29;20074;-87
2023/05/02 08:36:46;;;;;;;6.50;1.90;;;19.80;49.20;;;;;;4809249;29;20053;-87
2023/05/02 08:39:13;;;;;;;5.30;1.45;;;19.70;48.20;;;;;;4794440;29;20141;-87
2023/05/02 08:41:40;;;;;;;5.00;1.80;;;19.90;48.00;;;;;;4824188;29;20089;-87
2023/05/02 08:44:07;;;;;;;4.85;1.90;;;20.10;48.90;;;;;;4809329;29;20133;-87
2023/05/02 08:46:36;;;;;;;5.18;1.70;;;20.20;47.50;;;;;;4808818;29;20057;-87
2023/05/02 08:49:05;;;;;;;7.30;2.10;;;20.30;46.70;;;;;;4791537;29;20074;-87
2023/05/02 08:51:33;;;;;;;3.97;1.50;;;20.20;45.80;;;;;;4805877;29;20059;-87
2023/05/02 08:54:02;;;;;;;5.57;1.80;;;20.10;45.90;;;;;;4824089;29;20050;-87
2023/05/02 08:56:29;;;;;;;3.90;1.50;;;20.10;46.60;;;;;;4808515;29;20054;-87
2023/05/02 08:58:57;;;;;;;6.03;2.05;;;20.20;47.80;;;;;;4791764;29;20100;-87
2023/05/02 09:01:29;;;;;;;5.65;2.67;;;20.30;47.00;;;;;;4824372;29;20085;-87
2023/05/02 09:03:58;;;;;;;6.57;2.42;;;20.20;46.50;;;;;;4792679;29;20108;-87
2023/05/02 09:06:26;;;;;;;9.33;2.90;;;20.20;47.00;;;;;;4808894;29;20138;-87
2023/05/02 09:08:53;;;;;;;5.35;2.20;;;20.10;47.60;;;;;;4823823;29;20062;-87
2023/05/02 09:11:21;;;;;;;5.80;2.60;;;20.00;48.70;;;;;;4805529;29;20050;-87
2023/05/02 09:13:50;;;;;;;4.15;2.28;;;20.00;48.60;;;;;;4805382;29;20078;-87
2023/05/02 09:16:22;;;;;;;6.55;2.78;;;20.00;47.00;;;;;;4819357;29;20050;-87
2023/05/02 09:18:57;;;;;;;4.53;2.17;;;19.90;47.50;;;;;;4790603;29;20051;-87
2023/05/02 09:21:39;;;;;;;6.68;2.60;;;19.90;48.40;;;;;;4805841;29;20055;-87
2023/05/02 09:24:20;;;;;;;7.03;2.60;;;19.80;47.50;;;;;;4821970;29;20494;-87
2023/05/02 09:27:06;;;;;;;6.57;2.47;;;19.80;48.60;;;;;;4791806;29;20051;-87
2023/05/02 09:29:37;;;;;;;5.00;2.50;;;19.80;49.60;;;;;;4823840;29;20084;-87
2023/05/02 09:32:05;;;;;;;5.80;2.70;;;19.80;48.00;;;;;;4803797;29;20494;-87
2023/05/02 09:34:33;;;;;;;13.52;2.70;;;19.80;47.90;;;;;;4794163;29;20188;-87
2023/05/02 09:37:01;;;;;;;6.57;2.70;;;19.90;48.70;;;;;;4796270;29;20054;-87
2023/05/02 09:39:33;;;;;;;4.53;2.15;;;19.90;47.90;;;;;;4822514;29;20066;-87
2023/05/02 09:42:02;;;;;;;6.40;2.30;;;20.00;48.90;;;;;;4811629;29;20065;-87
2023/05/02 09:44:36;;;;;;;5.80;2.60;;;20.00;48.40;;;;;;4796995;29;20043;-87
2023/05/02 09:47:05;;;;;;;6.10;2.60;;;20.00;48.50;;;;;;4796752;29;20051;-87
2023/05/02 09:49:40;;;;;;;6.53;3.03;;;20.10;49.80;;;;;;4812067;29;20073;-87
2023/05/02 09:52:21;;;;;;;6.30;2.42;;;20.10;49.90;;;;;;4796657;29;20058;-87
2023/05/02 09:54:52;;;;;;;5.45;2.40;;;20.10;50.20;;;;;;4826910;29;20057;-87
2023/05/02 09:57:19;;;;;;;6.57;2.77;;;20.00;49.50;;;;;;4812224;29;20050;-87
2023/05/02 09:59:56;;;;;;;7.10;3.35;;;20.00;50.70;;;;;;4812612;29;20502;-87
2023/05/02 10:02:24;;;;;;;7.85;3.38;;;20.00;50.80;;;;;;4826519;29;20050;-87
2023/05/02 10:04:54;;;;;;;6.45;2.72;;;20.00;50.10;;;;;;4826538;29;20593;-87
2023/05/02 10:07:22;;;;;;;5.90;2.50;;;20.00;50.30;;;;;;4796229;29;20066;-87
2023/05/02 10:09:51;;;;;;;6.97;2.93;;;20.00;50.50;;;;;;4792371;29;20046;-87
2023/05/02 10:12:22;;;;;;;5.50;2.55;;;20.10;50.50;;;;;;4793442;29;20137;-87
2023/05/02 10:14:57;;;;;;;5.38;2.72;;;20.20;50.50;;;;;;4793296;29;20134;-87
2023/05/02 10:17:32;;;;;;;5.65;2.60;;;20.10;51.80;;;;;;4802840;29;20540;-87
2023/05/02 10:20:03;;;;;;;5.63;2.75;;;20.10;51.50;;;;;;4811226;29;20058;-87
2023/05/02 10:22:33;;;;;;;6.00;2.50;;;20.10;49.80;;;;;;4795976;29;20050;-87
2023/05/02 10:25:02;;;;;;;9.20;3.10;;;20.00;50.00;;;;;;4793368;29;20053;-87
2023/05/02 10:27:30;;;;;;;5.50;2.65;;;20.00;50.30;;;;;;4811170;29;20087;-87
2023/05/02 10:29:59;;;;;;;6.47;2.65;;;19.90;50.20;;;;;;4796430;29;20451;-87
2023/05/02 10:32:30;;;;;;;7.95;2.83;;;19.90;51.90;;;;;;4815578;29;20085;-87
2023/05/02 10:35:02;;;;;;;7.30;2.90;;;20.00;51.00;;;;;;4794388;29;20546;-87
2023/05/02 10:37:37;;;;;;;8.90;2.78;;;20.10;51.30;;;;;;4827032;29;20049;-87
2023/05/02 10:40:05;;;;;;;49.55;11.55;;;20.00;51.00;;;;;;4826205;29;20050;-87
2023/05/02 10:42:37;;;;;;;17.98;3.42;;;20.00;50.40;;;;;;4794904;29;20054;-87
2023/05/02 10:45:11;;;;;;;7.03;2.67;;;19.90;51.60;;;;;;4795856;29;20402;-87
2023/05/02 10:47:38;;;;;;;11.87;2.97;;;19.80;52.00;;;;;;4810635;29;20046;-87
2023/05/02 10:50:07;;;;;;;10.02;2.92;;;19.90;51.60;;;;;;4796177;29;20042;-87
2023/05/02 10:52:37;;;;;;;157.05;9.55;;;19.80;52.70;;;;;;4795502;29;20082;-88
2023/05/02 10:55:21;;;;;;;10.48;2.78;;;19.70;51.40;;;;;;4795733;29;20058;-87
2023/05/02 10:58:20;;;;;;;6.03;2.65;;;19.80;51.10;;;;;;4797538;29;20054;-87
2023/05/02 11:00:48;;;;;;;7.50;3.13;;;19.80;49.50;;;;;;4810406;29;20058;-87
2023/05/02 11:03:55;;;;;;;13.55;2.60;;;19.90;50.70;;;;;;4810610;29;20417;-87
2023/05/02 11:06:23;;;;;;;7.22;2.75;;;20.00;49.90;;;;;;4825590;29;20039;-87
2023/05/02 11:08:51;;;;;;;7.47;2.88;;;19.90;51.10;;;;;;4795097;29;20510;-87
2023/05/02 11:11:44;;;;;;;9.23;3.58;;;19.90;48.80;;;;;;4795302;29;20137;-87
2023/05/02 11:14:32;;;;;;;10.13;2.33;;;19.90;50.10;;;;;;4808430;29;20561;-87
2023/05/02 11:17:08;;;;;;;7.68;2.45;;;19.90;48.90;;;;;;4795091;29;20043;-87
2023/05/02 11:19:38;;;;;;;16.35;3.10;;;19.90;49.10;;;;;;4795408;29;20050;-87
2023/05/02 11:22:23;;;;;;;21.77;10.35;;;19.90;49.10;;;;;;4795225;29;20050;-87
2023/05/02 11:24:50;;;;;;;7.72;3.78;;;19.90;49.50;;;;;;4807084;29;20050;-87
2023/05/02 11:27:32;;;;;;;17.67;4.20;;;19.90;48.90;;;;;;4810249;29;20493;-88
2023/05/02 11:30:09;;;;;;;8.95;3.03;;;19.90;49.00;;;;;;4810048;29;20051;-87
2023/05/02 11:32:58;;;;;;;5.90;2.55;;;19.90;48.90;;;;;;4806665;29;20051;-87
2023/05/02 11:35:26;;;;;;;8.45;3.00;;;19.90;48.80;;;;;;4801495;29;20062;-90
2023/05/02 11:38:03;;;;;;;7.35;3.08;;;19.90;49.90;;;;;;4810122;29;20110;-90
2023/05/02 11:40:31;;;;;;;53.67;5.53;;;19.80;51.10;;;;;;4809900;29;20082;-90
2023/05/02 11:42:59;;;;;;;8.77;3.13;;;19.90;52.20;;;;;;4809820;29;20043;-90
2023/05/02 11:45:36;;;;;;;8.25;3.60;;;19.80;51.00;;;;;;4794685;29;20046;-90
2023/05/02 11:48:05;;;;;;;9.80;3.33;;;19.80;52.10;;;;;;4794900;29;20525;-90
2023/05/02 11:50:40;;;;;;;6.63;3.15;;;19.80;52.10;;;;;;4794897;29;20133;-90
2023/05/02 11:53:23;;;;;;;6.77;3.20;;;19.80;52.80;;;;;;4795915;29;20058;-90
2023/05/02 11:55:54;;;;;;;6.45;3.08;;;19.80;52.30;;;;;;4824661;29;20053;-90
2023/05/02 11:58:23;;;;;;;7.88;3.28;;;19.70;51.60;;;;;;4794567;29;20138;-89
2023/05/02 12:00:52;;;;;;;35.33;5.97;;;19.60;52.20;;;;;;4825156;29;20070;-90
2023/05/02 12:03:21;;;;;;;12.32;3.72;;;19.70;52.90;;;;;;4809622;29;20074;-89
2023/05/02 12:05:49;;;;;;;8.37;3.77;;;19.80;54.10;;;;;;4809841;29;20055;-90
2023/05/02 12:08:21;;;;;;;11.13;4.00;;;19.80;53.90;;;;;;4794564;29;20527;-88
2023/05/02 12:10:52;;;;;;;9.25;4.40;;;19.70;53.30;;;;;;4800662;29;20599;-87
2023/05/02 12:13:22;;;;;;;22.60;5.07;;;19.80;53.50;;;;;;4794426;29;20065;-87
2023/05/02 12:15:52;;;;;;;9.15;3.72;;;19.90;52.90;;;;;;4794502;29;20081;-87
2023/05/02 12:18:22;;;;;;;6.80;3.27;;;20.00;53.50;;;;;;4794227;29;20050;-87
2023/05/02 12:20:51;;;;;;;7.95;3.20;;;20.00;52.80;;;;;;4786672;29;20042;-87
2023/05/02 12:23:25;;;;;;;58.65;6.30;;;20.00;53.00;;;;;;4794281;29;20049;-87
2023/05/02 12:25:52;;;;;;;7.30;3.40;;;20.00;54.40;;;;;;4794172;29;20046;-87
2023/05/02 12:28:20;;;;;;;10.07;3.65;;;20.00;51.70;;;;;;4794375;29;20065;-88
2023/05/02 12:30:49;;;;;;;6.57;3.07;;;19.90;51.80;;;;;;4824074;29;20050;-88
2023/05/02 12:33:17;;;;;;;12.05;3.85;;;19.90;52.70;;;;;;4794259;29;20057;-87
2023/05/02 12:35:46;;;;;;;42.95;5.07;;;19.90;52.30;;;;;;4793880;29;20133;-87
2023/05/02 12:38:21;;;;;;;6.90;3.67;;;19.90;52.00;;;;;;4794544;29;20050;-87
2023/05/02 12:40:51;;;;;;;26.55;5.22;;;19.90;52.80;;;;;;4791640;29;20055;-87
2023/05/02 12:43:20;;;;;;;7.50;3.47;;;19.90;52.90;;;;;;4796017;29;20502;-87
2023/05/02 12:45:49;;;;;;;9.88;3.50;;;20.10;53.10;;;;;;4824175;29;20070;-87
2023/05/02 12:48:26;;;;;;;7.88;3.53;;;20.10;53.30;;;;;;4824017;29;20046;-87
2023/05/02 12:50:54;;;;;;;63.95;6.60;;;20.20;53.30;;;;;;4793915;29;20051;-86
2023/05/02 12:53:42;;;;;;;8.05;3.40;;;20.30;52.40;;;;;;4808743;29;20057;-87
2023/05/02 12:56:16;;;;;;;8.37;3.57;;;20.30;52.30;;;;;;4804928;29;20058;-87
2023/05/02 12:58:52;;;;;;;7.20;3.50;;;20.30;51.20;;;;;;4802128;29;20055;-87
2023/05/02 13:01:19;;;;;;;9.25;4.90;;;20.40;53.50;;;;;;4807994;29;20050;-86
2023/05/02 13:03:49;;;;;;;8.77;5.10;;;20.30;53.70;;;;;;4793172;29;20047;-86
2023/05/02 13:06:17;;;;;;;10.55;5.78;;;20.10;54.30;;;;;;4808499;29;20046;-86